Time;durP1;ratioP1;P1;durP2;ratioP2;P2;SDS_P1;SDS_P2;PMS_P1;PMS_P2;Temp;Humidity;BMP_temperature;BMP_pressure;BME280_temperature;BME280_humidity;BME280_pressure;Samples;Min_cycle;Max_cycle;Signal;HPM_P1;HPM_P2
2022/09/27 00:00:43;;;;;;;;;;;;;;;14.39;62.23;98666.59;4934777;28;7020;-80
2022/09/27 00:03:11;;;;;;;;;;;;;;;14.38;62.43;98677.78;4936189;28;6843;-85
2022/09/27 00:05:38;;;;;;;;;;;;;;;14.36;61.92;98672.63;4930404;28;7213;-82
2022/09/27 00:08:04;;;;;;;;;;;;;;;14.36;61.97;98674.34;4924300;28;7222;-83
2022/09/27 00:10:30;;;;;;;;;;;;;;;14.36;61.88;98676.91;4933445;28;7891;-83
2022/09/27 00:12:57;;;;;;;;;;;;;;;14.36;62.48;98676.91;4932990;28;6985;-82
2022/09/27 00:15:22;;;;;;;;;;;;;;;14.37;62.25;98683.78;4932100;28;6776;-82
2022/09/27 00:17:51;;;;;;;;;;;;;;;14.38;61.86;98685.50;4937328;28;7247;-83
2022/09/27 00:20:19;;;;;;;;;;;;;;;14.37;62.35;98689.81;4933147;28;7345;-82
2022/09/27 00:22:47;;;;;;;;;;;;;;;14.36;62.47;98687.22;4933250;28;6972;-78
2022/09/27 00:25:13;;;;;;;;;;;;;;;14.38;61.72;98690.66;4933255;28;6816;-82
2022/09/27 00:27:39;;;;;;;;;;;;;;;14.36;61.82;98685.50;4933739;28;7199;-82
2022/09/27 00:30:05;;;;;;;;;;;;;;;14.37;61.80;98689.81;4933958;28;6860;-80
2022/09/27 00:32:30;;;;;;;;;;;;;;;14.35;62.71;98688.94;4915044;28;8735;-81
2022/09/27 00:34:56;;;;;;;;;;;;;;;14.37;62.88;98688.94;4934138;28;7102;-79
2022/09/27 00:37:22;;;;;;;;;;;;;;;14.37;61.80;98691.50;4934369;28;6800;-82
2022/09/27 00:39:47;;;;;;;;;;;;;;;14.39;61.80;98694.94;4934916;28;7208;-83
2022/09/27 00:42:14;;;;;;;;;;;;;;;14.40;61.54;98687.25;4932833;28;6792;-82
2022/09/27 00:44:40;;;;;;;;;;;;;;;14.40;62.83;98687.25;4933555;28;6962;-81
2022/09/27 00:47:21;;;;;;;;;;;;;;;14.40;62.64;98689.81;4931522;28;6985;-83
2022/09/27 00:50:05;;;;;;;;;;;;;;;14.40;62.43;98694.13;4932960;28;6884;-81
2022/09/27 00:52:58;;;;;;;;;;;;;;;14.40;62.64;98694.13;4930821;28;6961;-83
2022/09/27 00:55:41;;;;;;;;;;;;;;;14.42;62.48;98695.84;4933599;28;8587;-80
2022/09/27 00:58:09;;;;;;;;;;;;;;;14.42;62.45;98693.25;4934117;28;7165;-79
2022/09/27 01:00:38;;;;;;;;;;;;;;;14.44;62.60;98685.53;4934294;28;6997;-82
2022/09/27 01:03:11;;;;;;;;;;;;;;;14.46;62.39;98693.28;4934693;28;8116;-82
2022/09/27 01:05:39;;;;;;;;;;;;;;;14.44;61.85;98690.69;4932733;28;7271;-83
2022/09/27 01:08:05;;;;;;;;;;;;;;;14.44;61.84;98691.56;4932076;28;7131;-84
2022/09/27 01:10:51;;;;;;;;;;;;;;;14.43;62.04;98701.88;4935423;28;7014;-83
2022/09/27 01:13:34;;;;;;;;;;;;;;;14.44;62.31;98703.59;4919131;28;8692;-82
2022/09/27 01:16:37;;;;;;;;;;;;;;;14.45;62.24;98713.03;4928198;28;7946;-81
2022/09/27 01:19:19;;;;;;;;;;;;;;;14.48;62.46;98707.03;4916653;28;7082;-82
2022/09/27 01:21:54;;;;;;;;;;;;;;;14.49;62.48;98719.06;4931717;28;8417;-82
2022/09/27 01:24:38;;;;;;;;;;;;;;;14.48;62.38;98709.63;4915637;28;7337;-82
2022/09/27 01:28:13;;;;;;;;;;;;;;;14.47;61.99;98715.63;4930769;28;8382;-83
2022/09/27 01:31:03;;;;;;;;;;;;;;;14.47;62.89;98719.06;4890738;29;7239;-81
2022/09/27 01:34:18;;;;;;;;;;;;;;;14.47;61.70;98725.94;4934092;28;6820;-82
2022/09/27 01:37:08;;;;;;;;;;;;;;;14.45;62.18;98720.78;4928491;28;6817;-85
2022/09/27 01:40:15;;;;;;;;;;;;;;;14.42;62.19;98724.19;4935885;28;8210;-84
2022/09/27 01:43:13;;;;;;;;;;;;;;;14.36;62.24;98729.31;4921194;28;8048;-84
2022/09/27 01:46:10;;;;;;;;;;;;;;;14.31;62.45;98728.44;4935991;28;7018;-82
2022/09/27 01:48:48;;;;;;;;;;;;;;;14.25;62.05;98731.81;4937902;28;7034;-83
2022/09/27 01:51:35;;;;;;;;;;;;;;;14.19;61.77;98731.78;4921000;28;7047;-81
2022/09/27 01:54:06;;;;;;;;;;;;;;;14.15;62.29;98740.34;4934716;28;6828;-82
2022/09/27 01:56:42;;;;;;;;;;;;;;;14.09;62.63;98740.28;4925554;28;7013;-82
2022/09/27 01:59:28;;;;;;;;;;;;;;;14.05;62.91;98736.00;4933912;28;7236;-81
2022/09/27 02:01:59;;;;;;;;;;;;;;;14.01;62.66;98733.41;4938006;28;6888;-82
2022/09/27 02:04:31;;;;;;;;;;;;;;;13.98;62.72;98733.34;4937192;28;6965;-79
2022/09/27 02:07:06;;;;;;;;;;;;;;;13.96;62.85;98724.75;4940048;28;6824;-82
2022/09/27 02:09:53;;;;;;;;;;;;;;;13.94;62.87;98728.16;4937127;28;6804;-80
2022/09/27 02:12:27;;;;;;;;;;;;;;;13.90;62.22;98724.72;4918833;28;7018;-82
2022/09/27 02:15:03;;;;;;;;;;;;;;;13.87;62.82;98732.41;4936384;28;7420;-82
2022/09/27 02:17:52;;;;;;;;;;;;;;;13.86;62.33;98728.13;4935089;28;7967;-81
2022/09/27 02:20:37;;;;;;;;;;;;;;;13.84;62.84;98737.56;4937012;28;6820;-82
2022/09/27 02:23:33;;;;;;;;;;;;;;;13.82;63.18;98731.53;4937262;28;7236;-81
2022/09/27 02:26:19;;;;;;;;;;;;;;;13.81;62.68;98735.81;4936564;28;8577;-82
2022/09/27 02:29:15;;;;;;;;;;;;;;;13.82;62.34;98741.84;4937511;28;7381;-81
2022/09/27 02:31:41;;;;;;;;;;;;;;;13.80;62.96;98741.81;4932534;28;6823;-82
2022/09/27 02:34:28;;;;;;;;;;;;;;;13.82;62.49;98749.56;4933649;28;6967;-81
2022/09/27 02:36:54;;;;;;;;;;;;;;;13.82;62.32;98752.13;4935394;28;7011;-82
2022/09/27 02:39:21;;;;;;;;;;;;;;;13.84;62.78;98755.59;4932834;28;7298;-81
2022/09/27 02:41:46;;;;;;;;;;;;;;;13.84;62.37;98755.59;4934795;28;7224;-78
2022/09/27 02:44:16;;;;;;;;;;;;;;;13.85;62.98;98767.59;4933577;28;7209;-81
2022/09/27 02:47:00;;;;;;;;;;;;;;;13.85;62.87;98758.16;4933054;28;8660;-81
2022/09/27 02:49:59;;;;;;;;;;;;;;;13.84;62.35;98766.72;4935096;28;6972;-79
2022/09/27 02:52:41;;;;;;;;;;;;;;;13.80;62.94;98759.84;4938532;28;7075;-83
2022/09/27 02:55:28;;;;;;;;;;;;;;;13.78;61.96;98763.25;4928805;28;7009;-81
2022/09/27 02:58:18;;;;;;;;;;;;;;;13.74;62.11;98765.81;4934483;28;7199;-81
2022/09/27 03:01:07;;;;;;;;;;;;;;;13.72;62.27;98762.34;4934226;28;7215;-77
2022/09/27 03:03:57;;;;;;;;;;;;;;;13.69;62.58;98767.47;4935125;28;6976;-78
2022/09/27 03:06:26;;;;;;;;;;;;;;;13.67;63.10;98771.75;4934948;28;7218;-77
2022/09/27 03:08:51;;;;;;;;;;;;;;;13.66;61.80;98769.13;4939655;28;7288;-78
2022/09/27 03:11:17;;;;;;;;;;;;;;;13.65;62.88;98768.28;4939101;28;8453;-77
2022/09/27 03:13:44;;;;;;;;;;;;;;;13.66;62.57;98775.16;4932898;28;6804;-77
2022/09/27 03:16:10;;;;;;;;;;;;;;;13.67;62.95;98779.47;4932672;28;7324;-77
2022/09/27 03:18:36;;;;;;;;;;;;;;;13.67;62.01;98787.19;4938083;28;7172;-77
2022/09/27 03:21:01;;;;;;;;;;;;;;;13.69;62.90;98788.06;4932336;28;8515;-78
2022/09/27 03:23:27;;;;;;;;;;;;;;;13.68;62.72;98780.34;4933723;28;7234;-77
2022/09/27 03:25:53;;;;;;;;;;;;;;;13.68;62.88;98796.63;4937157;28;6955;-77
2022/09/27 03:28:19;;;;;;;;;;;;;;;13.69;62.38;98798.34;4921413;28;8408;-78
2022/09/27 03:30:46;;;;;;;;;;;;;;;13.67;61.94;98799.22;4930756;28;8302;-78
2022/09/27 03:33:12;;;;;;;;;;;;;;;13.64;61.94;98799.16;4915219;28;8454;-78
2022/09/27 03:35:37;;;;;;;;;;;;;;;13.60;61.71;98798.25;4932353;28;6792;-78
2022/09/27 03:38:04;;;;;;;;;;;;;;;13.56;62.13;98796.50;4933513;28;6773;-79
2022/09/27 03:40:29;;;;;;;;;;;;;;;13.53;61.51;98797.34;4932631;28;6983;-78
2022/09/27 03:42:55;;;;;;;;;;;;;;;13.49;61.50;98797.28;4931225;28;8351;-77
2022/09/27 03:45:21;;;;;;;;;;;;;;;13.42;62.25;98788.63;4934552;28;6780;-77
2022/09/27 03:47:47;;;;;;;;;;;;;;;13.37;61.51;98793.72;4922004;28;7241;-77
2022/09/27 03:50:14;;;;;;;;;;;;;;;13.31;61.62;98791.94;4927718;28;6819;-78
2022/09/27 03:52:42;;;;;;;;;;;;;;;13.28;61.74;98791.03;4917362;28;7075;-78
2022/09/27 03:55:09;;;;;;;;;;;;;;;13.26;62.34;98777.31;4934910;28;6967;-78
2022/09/27 03:57:35;;;;;;;;;;;;;;;13.23;62.10;98797.81;4927966;28;7173;-78
2022/09/27 04:00:01;;;;;;;;;;;;;;;13.22;61.75;98793.53;4931362;28;6780;-78
2022/09/27 04:02:27;;;;;;;;;;;;;;;13.18;62.41;98785.78;4917120;28;8532;-77
2022/09/27 04:04:52;;;;;;;;;;;;;;;13.15;61.75;98785.75;4929404;28;8420;-77
2022/09/27 04:07:18;;;;;;;;;;;;;;;13.12;61.85;98787.44;4928767;28;6777;-78
2022/09/27 04:09:45;;;;;;;;;;;;;;;13.09;62.26;98782.25;4930996;28;7257;-77
2022/09/27 04:12:12;;;;;;;;;;;;;;;13.04;62.22;98777.91;4924640;28;6964;-77
2022/09/27 04:14:37;;;;;;;;;;;;;;;13.01;62.67;98777.00;4932873;28;8146;-77
2022/09/27 04:17:03;;;;;;;;;;;;;;;12.97;61.87;98786.38;4931255;28;6788;-78
2022/09/27 04:19:29;;;;;;;;;;;;;;;12.94;61.60;98777.78;4931996;28;7224;-78
2022/09/27 04:21:55;;;;;;;;;;;;;;;12.91;62.48;98782.03;4928683;28;6796;-78
2022/09/27 04:24:20;;;;;;;;;;;;;;;12.90;62.42;98775.16;4932126;28;6812;-78
2022/09/27 04:26:48;;;;;;;;;;;;;;;12.90;62.13;98776.91;4925560;28;6972;-78
2022/09/27 04:29:14;;;;;;;;;;;;;;;12.90;62.62;98779.47;4937284;28;7418;-79
2022/09/27 04:31:40;;;;;;;;;;;;;;;12.91;62.13;98773.47;4933948;28;6808;-78
2022/09/27 04:34:06;;;;;;;;;;;;;;;12.92;62.48;98783.75;4918935;28;6973;-78
2022/09/27 04:36:33;;;;;;;;;;;;;;;12.95;62.55;98779.53;4917685;28;8401;-78
2022/09/27 04:39:01;;;;;;;;;;;;;;;12.97;62.71;98786.38;4934208;28;8114;-78
2022/09/27 04:41:30;;;;;;;;;;;;;;;12.99;62.71;98789.00;4931841;28;6994;-78
2022/09/27 04:43:59;;;;;;;;;;;;;;;13.01;62.40;98795.00;4934858;28;6804;-77
2022/09/27 04:46:30;;;;;;;;;;;;;;;13.03;62.83;98795.88;4933687;28;7169;-78
2022/09/27 04:48:59;;;;;;;;;;;;;;;13.07;62.97;98797.66;4933784;28;10509;-78
2022/09/27 04:51:26;;;;;;;;;;;;;;;13.11;63.05;98807.13;4921091;28;7276;-78
2022/09/27 04:53:51;;;;;;;;;;;;;;;13.14;62.27;98809.75;4932823;28;8122;-78
2022/09/27 04:56:17;;;;;;;;;;;;;;;13.17;62.49;98808.91;4915259;28;7278;-78
2022/09/27 04:58:42;;;;;;;;;;;;;;;13.20;62.84;98811.53;4933451;28;6780;-78
2022/09/27 05:01:08;;;;;;;;;;;;;;;13.20;62.73;98811.53;4930009;28;8566;-78
2022/09/27 05:03:34;;;;;;;;;;;;;;;13.22;62.59;98814.13;4931158;28;8218;-78
2022/09/27 05:06:00;;;;;;;;;;;;;;;13.24;61.99;98809.88;4919208;28;8382;-78
2022/09/27 05:08:26;;;;;;;;;;;;;;;13.21;62.77;98818.41;4916265;28;8509;-78
2022/09/27 05:10:53;;;;;;;;;;;;;;;13.18;62.03;98819.22;4938094;28;7315;-78
2022/09/27 05:13:20;;;;;;;;;;;;;;;13.16;62.10;98826.06;4934778;28;6991;-78
2022/09/27 05:15:46;;;;;;;;;;;;;;;13.13;62.19;98823.44;4928533;28;8437;-78
2022/09/27 05:18:11;;;;;;;;;;;;;;;13.11;62.84;98822.56;4944014;28;6816;-78
2022/09/27 05:20:38;;;;;;;;;;;;;;;13.11;62.72;98816.56;4943835;28;7345;-78
2022/09/27 05:23:04;;;;;;;;;;;;;;;13.10;62.76;98823.41;4919492;28;7184;-78
2022/09/27 05:25:32;;;;;;;;;;;;;;;13.10;62.60;98825.97;4935759;28;7004;-77
2022/09/27 05:27:58;;;;;;;;;;;;;;;13.12;62.11;98833.72;4933982;28;7208;-78
2022/09/27 05:30:26;;;;;;;;;;;;;;;13.12;62.47;98837.16;4932589;28;6807;-78
2022/09/27 05:32:52;;;;;;;;;;;;;;;13.13;62.69;98830.31;4923179;28;7041;-78
2022/09/27 05:35:19;;;;;;;;;;;;;;;13.17;62.86;98847.50;4936027;28;7245;-78
2022/09/27 05:37:58;;;;;;;;;;;;;;;13.18;62.19;98847.53;4928981;28;6800;-78
2022/09/27 05:40:24;;;;;;;;;;;;;;;13.18;62.14;98850.09;4937512;28;8444;-78
2022/09/27 05:42:52;;;;;;;;;;;;;;;13.19;63.06;98849.25;4928766;28;7015;-78
2022/09/27 05:45:19;;;;;;;;;;;;;;;13.20;62.51;98853.56;4937412;28;7203;-78
2022/09/27 05:47:56;;;;;;;;;;;;;;;13.23;62.46;98864.72;4936120;28;7054;-78
2022/09/27 05:50:26;;;;;;;;;;;;;;;13.23;62.73;98862.16;4936006;28;6976;-78
2022/09/27 05:52:53;;;;;;;;;;;;;;;13.22;62.36;98850.13;4932201;28;7067;-79
2022/09/27 05:55:19;;;;;;;;;;;;;;;13.23;62.17;98859.56;4920084;28;6984;-78
2022/09/27 05:58:01;;;;;;;;;;;;;;;13.22;62.04;98858.72;4931675;28;6970;-79
2022/09/27 06:00:28;;;;;;;;;;;;;;;13.22;62.54;98857.84;4935572;28;6974;-79
2022/09/27 06:03:00;;;;;;;;;;;;;;;13.19;62.53;98859.53;4922921;28;8426;-80
2022/09/27 06:05:29;;;;;;;;;;;;;;;13.17;62.61;98860.34;4923703;28;8741;-79
2022/09/27 06:08:01;;;;;;;;;;;;;;;13.17;62.13;98861.25;4925726;28;6972;-79
2022/09/27 06:10:29;;;;;;;;;;;;;;;13.17;62.76;98856.09;4924906;28;8600;-79
2022/09/27 06:13:01;;;;;;;;;;;;;;;13.19;62.38;98858.69;4931258;28;7274;-80
2022/09/27 06:15:28;;;;;;;;;;;;;;;13.19;62.09;98859.53;4938739;28;6984;-80
2022/09/27 06:17:55;;;;;;;;;;;;;;;13.22;62.77;98858.72;4920037;28;7092;-80
2022/09/27 06:20:20;;;;;;;;;;;;;;;13.26;62.65;98869.91;4923106;28;6789;-79
2022/09/27 06:22:46;;;;;;;;;;;;;;;13.28;62.88;98870.78;4934324;28;7748;-80
2022/09/27 06:25:12;;;;;;;;;;;;;;;13.30;62.17;98871.69;4935529;28;6783;-81
2022/09/27 06:27:38;;;;;;;;;;;;;;;13.33;62.33;98871.72;4936533;28;6776;-79
2022/09/27 06:30:05;;;;;;;;;;;;;;;13.36;62.57;98871.75;4931594;28;6811;-80
2022/09/27 06:32:31;;;;;;;;;;;;;;;13.36;62.39;98871.75;4933722;28;6788;-79
2022/09/27 06:34:57;;;;;;;;;;;;;;;13.38;62.19;98872.63;4938064;28;6784;-79
2022/09/27 06:37:26;;;;;;;;;;;;;;;13.42;62.92;98873.53;4937310;28;7189;-79
2022/09/27 06:39:52;;;;;;;;;;;;;;;13.44;62.28;98870.19;4920327;28;8412;-80
2022/09/27 06:42:19;;;;;;;;;;;;;;;13.47;62.70;98870.22;4907398;28;8541;-80
2022/09/27 06:44:48;;;;;;;;;;;;;;;13.50;62.24;98869.38;4920427;28;8438;-79
2022/09/27 06:47:16;;;;;;;;;;;;;;;13.56;62.43;98876.31;4932567;28;7069;-78
2022/09/27 06:49:41;;;;;;;;;;;;;;;13.61;61.92;98874.63;4934255;28;7935;-77
2022/09/27 06:52:07;;;;;;;;;;;;;;;13.65;62.85;98871.25;4937100;28;6776;-79
2022/09/27 06:54:33;;;;;;;;;;;;;;;13.72;62.52;98878.22;4933720;28;6772;-79
2022/09/27 06:56:58;;;;;;;;;;;;;;;13.80;62.13;98883.44;4936246;28;6768;-79
2022/09/27 07:02:08;;;;;;;;;;;;;;;13.91;62.29;98880.97;4933605;28;6817;-80
2022/09/27 07:04:34;;;;;;;;;;;;;;;13.96;61.89;98888.75;4922672;28;7086;-79
2022/09/27 07:06:59;;;;;;;;;;;;;;;13.95;62.05;98885.31;4923500;28;8547;-79
2022/09/27 07:09:25;;;;;;;;;;;;;;;13.96;62.13;98881.88;4938586;28;6996;-80
2022/09/27 07:11:53;;;;;;;;;;;;;;;13.94;61.67;98875.84;4942188;28;6760;-79
2022/09/27 07:14:19;;;;;;;;;;;;;;;13.90;61.25;98868.94;4940650;28;6868;-80
2022/09/27 07:16:45;;;;;;;;;;;;;;;13.85;62.08;98866.31;4934215;28;7182;-79
2022/09/27 07:19:12;;;;;;;;;;;;;;;13.84;62.36;98874.03;4933526;28;7002;-79
2022/09/27 07:21:37;;;;;;;;;;;;;;;13.85;62.62;98875.75;4904959;28;8481;-80
2022/09/27 07:24:03;;;;;;;;;;;;;;;13.92;63.17;98885.28;4921382;28;6776;-79
2022/09/27 07:26:29;;;;;;;;;;;;;;;14.04;63.54;98881.94;4934362;28;7150;-80
2022/09/27 07:28:55;;;;;;;;;;;;;;;14.13;62.76;98874.31;4919307;28;8399;-78
2022/09/27 07:31:21;;;;;;;;;;;;;;;14.22;62.64;98876.13;4934972;28;8362;-79
2022/09/27 07:33:47;;;;;;;;;;;;;;;14.29;61.99;98874.44;4933652;28;6859;-79
2022/09/27 07:36:13;;;;;;;;;;;;;;;14.35;62.50;98882.25;4937144;28;6946;-79
2022/09/27 07:38:39;;;;;;;;;;;;;;;14.39;61.60;98872.78;4930917;28;8455;-79
2022/09/27 07:41:12;;;;;;;;;;;;;;;14.44;61.64;98873.69;4925527;28;6951;-79
2022/09/27 07:43:40;;;;;;;;;;;;;;;14.50;61.32;98876.34;4919209;28;6973;-78
2022/09/27 07:46:06;;;;;;;;;;;;;;;14.55;61.98;98868.63;4933621;28;6864;-78
2022/09/27 07:48:32;;;;;;;;;;;;;;;14.61;61.93;98878.13;4916991;28;7169;-78
2022/09/27 07:50:58;;;;;;;;;;;;;;;14.65;61.20;98882.44;4934605;28;7064;-77
2022/09/27 07:53:24;;;;;;;;;;;;;;;14.70;61.81;98883.34;4916036;28;9632;-77
2022/09/27 07:55:54;;;;;;;;;;;;;;;14.78;61.31;98886.88;4933283;28;8509;-77
2022/09/27 07:58:21;;;;;;;;;;;;;;;14.85;61.14;98896.38;4933405;28;7292;-77
2022/09/27 08:00:46;;;;;;;;;;;;;;;14.92;61.34;98893.84;4931777;28;8460;-77
2022/09/27 08:03:16;;;;;;;;;;;;;;;14.95;61.30;98894.72;4934763;28;8457;-77
2022/09/27 08:05:47;;;;;;;;;;;;;;;14.99;60.80;98904.19;4920494;28;7343;-78
2022/09/27 08:08:14;;;;;;;;;;;;;;;15.07;61.03;98908.53;4932091;28;6948;-77
2022/09/27 08:10:46;;;;;;;;;;;;;;;15.19;61.54;98908.59;4919199;28;8520;-76
2022/09/27 08:13:13;;;;;;;;;;;;;;;15.34;61.59;98904.38;4930516;28;8044;-77
2022/09/27 08:15:39;;;;;;;;;;;;;;;15.49;61.14;98899.25;4930656;28;6991;-76
2022/09/27 08:18:08;;;;;;;;;;;;;;;15.66;61.31;98907.09;4929144;28;6951;-76
2022/09/27 08:20:34;;;;;;;;;;;;;;;15.80;60.46;98908.84;4937761;28;7506;-77
2022/09/27 08:23:03;;;;;;;;;;;;;;;15.92;60.76;98905.47;4930630;28;8053;-76
2022/09/27 08:25:29;;;;;;;;;;;;;;;16.00;60.29;98914.09;4933845;28;6975;-77
2022/09/27 08:27:57;;;;;;;;;;;;;;;16.04;59.95;98910.66;4934405;28;7251;-76
2022/09/27 08:30:25;;;;;;;;;;;;;;;16.04;59.38;98910.66;4918057;28;7213;-76
2022/09/27 08:32:56;;;;;;;;;;;;;;;16.02;58.96;98917.56;4914558;29;7084;-77
2022/09/27 08:35:22;;;;;;;;;;;;;;;15.97;59.06;98919.25;4901323;28;7020;-78
2022/09/27 08:37:59;;;;;;;;;;;;;;;15.92;59.16;98919.22;4932774;28;7204;-78
2022/09/27 08:40:58;;;;;;;;;;;;;;;15.91;59.17;98917.50;4935031;28;6991;-77
2022/09/27 08:43:49;;;;;;;;;;;;;;;15.87;59.02;98922.63;4937948;28;7212;-79
2022/09/27 08:46:38;;;;;;;;;;;;;;;15.83;58.86;98925.22;4919754;28;8652;-77
2022/09/27 08:49:20;;;;;;;;;;;;;;;15.82;59.21;98931.25;4932457;28;7505;-77
2022/09/27 08:51:52;;;;;;;;;;;;;;;15.87;58.93;98922.63;4937688;28;7032;-77
2022/09/27 08:54:30;;;;;;;;;;;;;;;15.93;59.04;98922.69;4927657;28;7002;-77
2022/09/27 08:57:13;;;;;;;;;;;;;;;15.96;58.95;98925.28;4934484;28;6864;-77
2022/09/27 08:59:47;;;;;;;;;;;;;;;16.05;59.25;98920.13;4937737;28;6868;-78
2022/09/27 09:02:19;;;;;;;;;;;;;;;16.21;59.41;98920.16;4920331;28;9874;-77
2022/09/27 09:04:53;;;;;;;;;;;;;;;16.33;59.57;98917.59;4924243;28;12071;-77
2022/09/27 09:07:39;;;;;;;;;;;;;;;16.45;58.54;98918.44;4937778;28;8400;-77
2022/09/27 09:13:46;;;;;;;;;;;;;;;16.68;58.77;98923.63;4897342;28;1071824;-77
2022/09/27 09:16:57;;;;;;;;;;;;;;;16.76;58.12;98915.88;4937271;28;10538;-77
2022/09/27 09:20:15;;;;;;;;;;;;;;;16.78;57.85;98914.13;4936404;28;8522;-77
2022/09/27 09:23:05;;;;;;;;;;;;;;;16.75;57.08;98915.00;4937725;28;7269;-77
2022/09/27 09:26:03;;;;;;;;;;;;;;;16.63;56.49;98921.03;4935611;28;6808;-76
2022/09/27 09:28:53;;;;;;;;;;;;;;;16.48;56.68;98913.28;4935868;28;8997;-77
2022/09/27 09:31:56;;;;;;;;;;;;;;;16.41;57.42;98915.00;4932117;28;6968;-77
2022/09/27 09:34:35;;;;;;;;;;;;;;;16.46;57.82;98923.63;4936576;28;7450;-77
2022/09/27 09:37:39;;;;;;;;;;;;;;;16.47;56.88;98912.41;4931772;28;7269;-77
2022/09/27 09:40:42;;;;;;;;;;;;;;;16.38;56.80;98915.00;4936600;28;7600;-77
2022/09/27 09:43:40;;;;;;;;;;;;;;;16.24;57.07;98913.28;4937706;28;7257;-77
2022/09/27 09:46:09;;;;;;;;;;;;;;;16.14;56.85;98914.13;4934582;28;8883;-76
2022/09/27 09:49:06;;;;;;;;;;;;;;;16.09;57.00;98916.72;4941075;28;7431;-78
2022/09/27 09:51:43;;;;;;;;;;;;;;;15.99;56.16;98914.09;4944339;28;7738;-79
2022/09/27 09:54:24;;;;;;;;;;;;;;;15.86;56.52;98921.78;4919431;28;7070;-77
2022/09/27 09:57:22;;;;;;;;;;;;;;;15.67;56.31;98923.44;4940489;28;7023;-78
2022/09/27 10:00:15;;;;;;;;;;;;;;;15.52;57.12;98921.66;4938034;28;8466;-78
2022/09/27 10:02:47;;;;;;;;;;;;;;;15.51;58.32;98925.09;4924113;28;13085;-78
2022/09/27 10:05:19;;;;;;;;;;;;;;;15.68;58.72;98925.16;4934710;28;7230;-77
2022/09/27 10:07:49;;;;;;;;;;;;;;;15.94;59.16;98917.53;4904744;28;10407;-77
2022/09/27 10:10:18;;;;;;;;;;;;;;;16.32;58.60;98912.41;4920353;28;8883;-77
2022/09/27 10:12:45;;;;;;;;;;;;;;;16.72;58.68;98908.97;4936710;28;7260;-78
2022/09/27 10:15:22;;;;;;;;;;;;;;;17.10;58.07;98905.47;4938345;28;6800;-78
2022/09/27 10:17:52;;;;;;;;;;;;;;;17.55;58.04;98907.06;4937051;28;6992;-78
2022/09/27 10:20:49;;;;;;;;;;;;;;;17.93;56.69;98907.72;4924029;28;8613;-78
2022/09/27 10:23:21;;;;;;;;;;;;;;;18.13;55.90;98899.84;4939300;28;6988;-78
2022/09/27 10:25:55;;;;;;;;;;;;;;;18.20;54.89;98892.88;4936189;28;7330;-77
2022/09/27 10:28:36;;;;;;;;;;;;;;;18.18;54.35;98892.88;4936887;28;6993;-77
2022/09/27 10:31:09;;;;;;;;;;;;;;;18.11;54.25;98901.59;4935045;28;7211;-78
2022/09/27 10:33:49;;;;;;;;;;;;;;;18.01;54.70;98885.19;4937860;28;6812;-78
2022/09/27 10:36:41;;;;;;;;;;;;;;;17.95;55.20;98886.09;4919150;28;8417;-78
2022/09/27 10:39:22;;;;;;;;;;;;;;;18.26;55.47;98891.09;4920222;28;7487;-77
2022/09/27 10:41:48;;;;;;;;;;;;;;;18.67;55.04;98882.97;4922983;28;8546;-76
2022/09/27 10:44:20;;;;;;;;;;;;;;;19.20;54.68;98880.72;4937019;28;6776;-77
2022/09/27 10:46:53;;;;;;;;;;;;;;;19.74;53.54;98871.38;4917640;28;6991;-77
2022/09/27 10:49:40;;;;;;;;;;;;;;;20.19;52.21;98877.72;4931988;28;7193;-77
2022/09/27 10:52:23;;;;;;;;;;;;;;;20.43;51.27;98867.78;4937640;28;6816;-78
2022/09/27 10:55:18;;;;;;;;;;;;;;;20.46;50.66;98878.13;4936836;28;8584;-75
2022/09/27 10:57:52;;;;;;;;;;;;;;;20.40;50.13;98866.94;4908337;28;7299;-76
2022/09/27 11:00:33;;;;;;;;;;;;;;;20.39;50.32;98873.03;4936321;28;6943;-78
2022/09/27 11:03:04;;;;;;;;;;;;;;;20.51;49.75;98863.28;4922121;28;6808;-77
2022/09/27 11:05:37;;;;;;;;;;;;;;;20.74;49.62;98856.81;4934321;28;7240;-76
2022/09/27 11:08:37;;;;;;;;;;;;;;;21.08;48.87;98864.03;4932698;28;8582;-78
2022/09/27 11:11:12;;;;;;;;;;;;;;;21.19;47.79;98864.66;4938929;28;7021;-77
2022/09/27 11:13:38;;;;;;;;;;;;;;;21.07;47.32;98862.31;4941133;28;7175;-77
2022/09/27 11:16:21;;;;;;;;;;;;;;;20.90;46.98;98862.63;4930320;28;7266;-77
2022/09/27 11:19:08;;;;;;;;;;;;;;;20.57;47.06;98868.41;4935459;28;6820;-78
2022/09/27 11:22:00;;;;;;;;;;;;;;;20.25;47.22;98862.84;4932009;28;7212;-77
2022/09/27 11:24:55;;;;;;;;;;;;;;;19.95;47.61;98866.78;4933693;28;7228;-77
2022/09/27 11:27:48;;;;;;;;;;;;;;;19.71;48.11;98876.63;4931926;28;7042;-77
2022/09/27 11:30:21;;;;;;;;;;;;;;;19.49;48.08;98871.69;4936206;28;7225;-76
2022/09/27 11:33:33;;;;;;;;;;;;;;;19.22;48.13;98883.31;4936528;28;6989;-77
2022/09/27 11:36:46;;;;;;;;;;;;;;;18.79;48.09;98871.63;4932914;28;7076;-74
2022/09/27 11:39:43;;;;;;;;;;;;;;;18.23;48.32;98883.34;4926742;28;7325;-76
2022/09/27 11:42:58;;;;;;;;;;;;;;;17.63;49.48;98884.56;4902124;28;7029;-75
2022/09/27 11:45:50;;;;;;;;;;;;;;;17.03;50.57;98891.69;4939673;28;7192;-76
2022/09/27 11:48:41;;;;;;;;;;;;;;;16.59;51.25;98887.41;4938756;28;7031;-76
2022/09/27 11:51:41;;;;;;;;;;;;;;;16.10;51.75;98883.97;4917731;28;7238;-76
2022/09/27 11:54:35;;;;;;;;;;;;;;;15.74;53.05;98885.56;4929690;28;7111;-77
2022/09/27 11:57:34;;;;;;;;;;;;;;;15.47;54.18;98892.41;4939215;28;7351;-76
2022/09/27 12:00:16;;;;;;;;;;;;;;;15.32;55.01;98882.88;4939609;28;6997;-77
2022/09/27 12:03:14;;;;;;;;;;;;;;;15.31;55.59;98891.47;4918894;28;13252;-78
2022/09/27 12:06:09;;;;;;;;;;;;;;;15.39;56.08;98879.44;4921408;28;8572;-77
2022/09/27 12:08:58;;;;;;;;;;;;;;;15.58;56.13;98885.53;4935959;28;7937;-76
2022/09/27 12:11:48;;;;;;;;;;;;;;;15.70;56.24;98884.72;4932456;28;7311;-77
2022/09/27 12:14:37;;;;;;;;;;;;;;;15.75;55.90;98885.59;4934707;28;8500;-77
2022/09/27 12:17:17;;;;;;;;;;;;;;;15.67;55.57;98893.31;4931479;28;8759;-76
2022/09/27 12:19:55;;;;;;;;;;;;;;;15.44;54.73;98903.56;4936648;28;7009;-76
2022/09/27 12:22:38;;;;;;;;;;;;;;;15.10;54.56;98904.25;4937093;28;6815;-76
2022/09/27 12:25:05;;;;;;;;;;;;;;;14.78;54.81;98904.06;4933221;28;7079;-77
2022/09/27 12:27:42;;;;;;;;;;;;;;;14.60;56.07;98913.34;4935457;28;8099;-76
2022/09/27 12:30:12;;;;;;;;;;;;;;;14.56;56.41;98909.03;4931694;28;7406;-77
2022/09/27 12:32:54;;;;;;;;;;;;;;;14.64;57.32;98901.34;4919089;29;11163;-77
2022/09/27 12:35:30;;;;;;;;;;;;;;;14.79;57.83;98898.94;4933166;28;7134;-77
2022/09/27 12:38:22;;;;;;;;;;;;;;;14.97;57.04;98899.91;4934873;28;6898;-78
2022/09/27 12:40:57;;;;;;;;;;;;;;;15.09;57.78;98899.97;4933547;28;6988;-76
2022/09/27 12:43:27;;;;;;;;;;;;;;;15.16;56.66;98898.28;4930511;28;9298;-77
2022/09/27 12:46:21;;;;;;;;;;;;;;;15.17;57.28;98905.16;4929230;28;6999;-76
2022/09/27 12:49:11;;;;;;;;;;;;;;;15.17;56.52;98899.16;4933868;28;7204;-76
2022/09/27 12:52:11;;;;;;;;;;;;;;;15.11;56.21;98906.00;4932543;28;7348;-77
2022/09/27 12:55:30;;;;;;;;;;;;;;;15.05;56.29;98898.19;4928027;29;7302;-77
2022/09/27 12:58:36;;;;;;;;;;;;;;;15.02;57.31;98899.91;4899338;29;7023;-77
2022/09/27 13:01:25;;;;;;;;;;;;;;;15.07;57.18;98901.69;4910746;29;6871;-76
2022/09/27 13:04:03;;;;;;;;;;;;;;;15.14;57.76;98903.41;4930412;28;7276;-78
2022/09/27 13:07:05;;;;;;;;;;;;;;;15.29;57.15;98896.63;4929404;28;7919;-77
2022/09/27 13:09:58;;;;;;;;;;;;;;;15.49;57.96;98901.00;4919264;28;7241;-74
2022/09/27 13:12:28;;;;;;;;;;;;;;;15.64;57.58;98903.63;4909978;28;7282;-76
2022/09/27 13:15:16;;;;;;;;;;;;;;;15.86;57.44;98910.59;4926364;28;7220;-76
2022/09/27 13:17:43;;;;;;;;;;;;;;;15.99;57.24;98896.88;4916566;28;6824;-77
2022/09/27 13:20:34;;;;;;;;;;;;;;;16.19;56.82;98893.47;4916368;28;6978;-76
2022/09/27 13:23:04;;;;;;;;;;;;;;;16.36;57.44;98896.03;4910114;28;7654;-76
2022/09/27 13:25:52;;;;;;;;;;;;;;;16.65;57.41;98890.00;4931148;28;7438;-76
2022/09/27 13:28:28;;;;;;;;;;;;;;;16.90;57.20;98888.22;4926379;28;7424;-76
2022/09/27 13:31:06;;;;;;;;;;;;;;;17.17;56.75;98883.00;4934460;28;6808;-77
2022/09/27 13:33:45;;;;;;;;;;;;;;;17.39;56.12;98883.81;4931826;28;7199;-77
2022/09/27 13:36:23;;;;;;;;;;;;;;;17.58;55.70;98874.22;4934424;28;7495;-76
2022/09/27 13:39:05;;;;;;;;;;;;;;;17.68;55.24;98876.78;4929530;28;7012;-75
2022/09/27 13:41:47;;;;;;;;;;;;;;;17.77;55.71;98882.75;4933709;28;7066;-76
2022/09/27 13:44:47;;;;;;;;;;;;;;;17.89;55.05;98880.94;4936832;28;7460;-76
2022/09/27 13:47:35;;;;;;;;;;;;;;;17.96;54.92;98877.47;4937262;28;8821;-75
2022/09/27 13:50:28;;;;;;;;;;;;;;;17.94;54.42;98878.34;4929279;28;8666;-77